Wilson Creek, WA (98860)

6:42 AM PDT on September 30, 2014 (GMT -0700)
Adrian | Change Station
CLOSE
Current Station
Personal Weather Station
Location: Soap Lake, WA
Elevation: 1201 ft
Nearby Weather Stations

Elev 1201 ft 47.39 °N, 119.38 °W | Updated 10 seconds ago

Clear
Clear
56.8 °F
Feels Like 56.8 °F
N
12.3
Wind Variable Wind from WNW
Gusts 15.0 mph

Today
High -- | Low -- °F
--% Chance of Precip.
Yesterday
High -- | Low -- °F
Precip. -- in
6:54 AM 6:37 PM
Waxing Crescent, 37% visible
Pressure 29.86 in
Visibility 10.0 miles
Clouds Clear
Dew Point 39 °F
Humidity 52%
Rainfall 0.00 in
Snow Depth 0 in , 0 in , 0 in
UV 0 out of 12
Pollen 4.90 out of 12
Air Quality Not available.
Flu Activity Not available.
METAR KMWH 301252Z 25010KT 10SM CLR 12/04 A2987 RMK AO2 SLP111 T01170044

More Conditions Fewer Conditions

Pressure 29.86 in
Visibility 10.0 miles
Clouds Clear
Dew Point 39 °F
Humidity 52%
Rainfall 0.00 in
Snow Depth 0 in , 0 in , 0 in
UV 0 out of 12
Pollen 4.90 out of 12
Air Quality Not available.
Flu Activity Not available.
METAR KMWH 301252Z 25010KT 10SM CLR 12/04 A2987 RMK AO2 SLP111 T01170044

More Conditions Fewer Conditions

10-Day Weather Forecast

Almanac

Astronomy

Sep. 30, 2014 Rise Set
Actual Time 6:54 AM PDT 6:37 PM PDT
Civil Twilight 6:23 AM PDT 7:08 PM PDT
Nautical Twilight 5:47 AM PDT 7:43 PM PDT
Astronomical Twilight 5:11 AM PDT 8:20 PM PDT
Moon 1:25 PM PDT 10:54 PM PDT
Length of Visible Light 12h 44m
Length of Day
11h 43m
Tomorrow will be 3m 23s shorter.
Waxing Crescent, 37% of the Moon is Illuminated
Today
Waxing Crescent
Oct 1
First Quarter
Oct 8
Full
Oct 15
Last Quarter
Oct 23
New

Today's Extremes

State Highs State Lows

Community

WunderPhotos

Upload Photos

1,757,636 photos uploaded!

Nearby

Snow Depth

Station Depth Elevation
June Lake 0 in 3340 ft
Olallie Meadows 0 in 3700 ft
Beaver Pass 0 in 3620 ft
Skookum Creek 0 in 3920 ft
Stampede Pass 0 in 3860 ft

Earthquake Activity

City Distance Mag. Time & Date
No recent earthquake activity has been reported nearby.
Minimum magnitude displayed is 2.5.

Coastal Water Temperatures

Place Temperature
No Stations Reporting

Nearby Weather Stations